Time;durP1;ratioP1;P1;durP2;ratioP2;P2;SDS_P1;SDS_P2;PMS_P1;PMS_P2;Temp;Humidity;BMP_temperature;BMP_pressure;BME280_temperature;BME280_humidity;BME280_pressure;Samples;Min_cycle;Max_cycle;Signal;HPM_P1;HPM_P2
2023/10/04 00:00:53;;;;;;;6.40;2.28;;;;;;;;;;6284036;28;20661;-80
2023/10/04 00:03:55;;;;;;;2.72;1.92;;;;;;;;;;6285634;28;20583;-79
2023/10/04 00:06:57;;;;;;;6.25;2.38;;;;;;;;;;6282124;28;20040;-78
2023/10/04 00:10:04;;;;;;;4.53;2.47;;;;;;;;;;6283841;28;20403;-79
2023/10/04 00:13:05;;;;;;;6.95;2.40;;;;;;;;;;6276962;28;20111;-79
2023/10/04 00:16:07;;;;;;;5.15;2.85;;;;;;;;;;6292590;28;20122;-78
2023/10/04 00:19:09;;;;;;;4.40;2.45;;;;;;;;;;6284786;28;20044;-78
2023/10/04 00:22:11;;;;;;;3.80;2.20;;;;;;;;;;6283353;28;20045;-80
2023/10/04 00:25:20;;;;;;;4.53;2.28;;;;;;;;;;6281785;28;20045;-80
2023/10/04 00:28:23;;;;;;;7.18;2.55;;;;;;;;;;6279310;28;20037;-80
2023/10/04 00:31:25;;;;;;;5.00;2.25;;;;;;;;;;6289108;28;20051;-80
2023/10/04 00:34:26;;;;;;;4.25;2.70;;;;;;;;;;6283661;28;20109;-79
2023/10/04 00:37:28;;;;;;;6.85;2.47;;;;;;;;;;6284958;28;20041;-78
2023/10/04 00:40:31;;;;;;;5.07;2.40;;;;;;;;;;6285158;28;20071;-80
2023/10/04 00:43:42;;;;;;;;;;;;;;;;;;6269055;28;20120;-78
2023/10/04 00:46:45;;;;;;;6.00;2.45;;;;;;;;;;6287919;28;19943;-77
2023/10/04 00:49:47;;;;;;;4.28;2.08;;;;;;;;;;6291286;28;20044;-77
2023/10/04 00:53:08;;;;;;;4.38;2.03;;;;;;;;;;6286859;28;20051;-78
2023/10/04 00:56:10;;;;;;;4.55;2.10;;;;;;;;;;6283544;28;20508;-80
2023/10/04 00:59:12;;;;;;;4.07;2.60;;;;;;;;;;6266351;28;20048;-78
2023/10/04 01:02:14;;;;;;;4.07;2.15;;;;;;;;;;6287824;28;20040;-78
2023/10/04 01:05:17;;;;;;;4.85;2.03;;;;;;;;;;6286907;28;20059;-80
2023/10/04 01:08:23;;;;;;;3.63;1.67;;;;;;;;;;6282011;28;20098;-78
2023/10/04 01:11:25;;;;;;;3.65;1.88;;;;;;;;;;6299018;28;20053;-77
2023/10/04 01:14:32;;;;;;;6.40;2.35;;;;;;;;;;6288631;28;20059;-82
2023/10/04 01:17:35;;;;;;;5.28;2.30;;;;;;;;;;6291586;28;20048;-82
2023/10/04 01:20:39;;;;;;;3.97;1.80;;;;;;;;;;6283809;28;20044;-80
2023/10/04 01:23:40;;;;;;;5.65;2.28;;;;;;;;;;6268361;28;20049;-79
2023/10/04 01:26:43;;;;;;;5.75;2.38;;;;;;;;;;6284603;28;20050;-82
2023/10/04 01:29:45;;;;;;;4.57;2.38;;;;;;;;;;6286366;28;20053;-82
2023/10/04 01:32:50;;;;;;;7.25;2.03;;;;;;;;;;6291778;28;20119;-79
2023/10/04 01:35:55;;;;;;;4.90;2.40;;;;;;;;;;6288513;28;20186;-78
2023/10/04 01:38:57;;;;;;;3.63;2.08;;;;;;;;;;6261682;28;20112;-78
2023/10/04 01:41:59;;;;;;;3.33;1.80;;;;;;;;;;6271389;28;20040;-81
2023/10/04 01:45:01;;;;;;;4.05;2.00;;;;;;;;;;6286100;28;20048;-80
2023/10/04 01:48:04;;;;;;;5.10;2.00;;;;;;;;;;6291242;28;20092;-80
2023/10/04 01:51:06;;;;;;;5.05;2.08;;;;;;;;;;6276763;28;20052;-82
2023/10/04 01:54:09;;;;;;;3.00;2.10;;;;;;;;;;6282250;28;20123;-80
2023/10/04 01:57:11;;;;;;;4.50;2.35;;;;;;;;;;6269590;28;20959;-79
2023/10/04 02:00:18;;;;;;;3.47;2.08;;;;;;;;;;6279528;28;20063;-80
2023/10/04 02:03:20;;;;;;;6.20;2.38;;;;;;;;;;6288659;28;20125;-81
2023/10/04 02:06:22;;;;;;;3.53;1.88;;;;;;;;;;6280503;28;20049;-80
2023/10/04 02:09:24;;;;;;;3.85;1.73;;;;;;;;;;6274935;28;20060;-81
2023/10/04 02:12:26;;;;;;;5.07;2.13;;;;;;;;;;6271529;28;20071;-78
2023/10/04 02:15:28;;;;;;;3.85;1.92;;;;;;;;;;6270390;28;20063;-79
2023/10/04 02:18:32;;;;;;;8.20;2.22;;;;;;;;;;6267086;28;20064;-79
2023/10/04 02:21:33;;;;;;;4.60;2.13;;;;;;;;;;6262867;28;20051;-81
2023/10/04 02:24:35;;;;;;;3.92;2.00;;;;;;;;;;6278634;28;20057;-82
2023/10/04 02:27:37;;;;;;;3.30;1.88;;;;;;;;;;6264273;28;20048;-81
2023/10/04 02:30:39;;;;;;;2.38;1.75;;;;;;;;;;6283704;28;20533;-80
2023/10/04 02:33:41;;;;;;;4.32;2.13;;;;;;;;;;6282304;28;20149;-79
2023/10/04 02:36:44;;;;;;;4.35;2.30;;;;;;;;;;6280567;28;20051;-79
2023/10/04 02:39:46;;;;;;;3.83;1.90;;;;;;;;;;6265354;28;20174;-82
2023/10/04 02:42:48;;;;;;;6.05;2.08;;;;;;;;;;6277134;28;20048;-81
2023/10/04 02:45:50;;;;;;;4.90;2.33;;;;;;;;;;6283083;28;20051;-81
2023/10/04 02:48:52;;;;;;;6.57;2.55;;;;;;;;;;6280121;28;20108;-80
2023/10/04 02:51:54;;;;;;;4.78;2.58;;;;;;;;;;6260281;28;20457;-78
2023/10/04 02:54:57;;;;;;;4.07;2.28;;;;;;;;;;6281324;28;20045;-79
2023/10/04 02:58:05;;;;;;;3.80;2.28;;;;;;;;;;6288763;28;20095;-82
2023/10/04 03:01:08;;;;;;;9.50;3.47;;;;;;;;;;6293237;28;20114;-81
2023/10/04 03:04:14;;;;;;;3.42;2.15;;;;;;;;;;6272531;28;20041;-80
2023/10/04 03:07:16;;;;;;;3.70;1.90;;;;;;;;;;6275026;28;20383;-80
2023/10/04 03:10:24;;;;;;;3.53;1.90;;;;;;;;;;6289889;28;20049;-79
2023/10/04 03:13:31;;;;;;;5.45;2.30;;;;;;;;;;6271034;28;20132;-82
2023/10/04 03:16:35;;;;;;;4.55;3.05;;;;;;;;;;6217853;28;20051;-79
2023/10/04 03:19:41;;;;;;;3.83;2.30;;;;;;;;;;6286578;28;20052;-81
2023/10/04 03:22:43;;;;;;;6.20;2.30;;;;;;;;;;6281037;28;20040;-80
2023/10/04 03:25:48;;;;;;;4.13;2.20;;;;;;;;;;6309829;28;20070;-82
2023/10/04 03:28:50;;;;;;;5.72;2.85;;;;;;;;;;6303564;28;20443;-81
2023/10/04 03:31:54;;;;;;;4.43;2.10;;;;;;;;;;6292751;28;20054;-80
2023/10/04 03:34:56;;;;;;;4.60;2.40;;;;;;;;;;6312014;28;20044;-82
2023/10/04 03:37:58;;;;;;;7.75;3.03;;;;;;;;;;6290832;28;20052;-80
2023/10/04 03:41:05;;;;;;;5.28;2.90;;;;;;;;;;6284569;28;20145;-79
2023/10/04 03:44:09;;;;;;;;;;;;;;;;;;6294859;28;20387;-81
2023/10/04 03:47:10;;;;;;;5.60;2.50;;;;;;;;;;6297153;28;20061;-82
2023/10/04 03:50:13;;;;;;;6.80;2.78;;;;;;;;;;6311510;28;20460;-81
2023/10/04 03:53:16;;;;;;;5.13;2.45;;;;;;;;;;6307817;28;20192;-81
2023/10/04 03:56:18;;;;;;;4.22;2.47;;;;;;;;;;6299378;28;20048;-81
2023/10/04 03:59:22;;;;;;;4.32;2.22;;;;;;;;;;6289448;28;20103;-78
2023/10/04 04:02:28;;;;;;;4.32;1.92;;;;;;;;;;6282500;28;20052;-82
2023/10/04 04:05:32;;;;;;;3.70;2.50;;;;;;;;;;6291722;28;20047;-82
2023/10/04 04:08:34;;;;;;;6.32;2.33;;;;;;;;;;6274017;28;20494;-82
2023/10/04 04:11:36;;;;;;;6.47;2.85;;;;;;;;;;6275467;28;20055;-81
2023/10/04 04:14:37;;;;;;;7.00;2.50;;;;;;;;;;6315563;28;20058;-80
2023/10/04 04:17:43;;;;;;;5.65;2.40;;;;;;;;;;6296198;28;20123;-80
2023/10/04 04:20:50;;;;;;;4.85;2.55;;;;;;;;;;6308100;28;20043;-80
2023/10/04 04:23:52;;;;;;;5.65;2.42;;;;;;;;;;6296429;28;20079;-81
2023/10/04 04:26:58;;;;;;;6.90;2.58;;;;;;;;;;6306855;28;20086;-81
2023/10/04 04:30:03;;;;;;;6.22;2.83;;;;;;;;;;6285388;28;20517;-80
2023/10/04 04:33:07;;;;;;;6.30;2.80;;;;;;;;;;6293810;28;20454;-79
2023/10/04 04:36:19;;;;;;;7.30;2.70;;;;;;;;;;6297349;28;20109;-79
2023/10/04 04:39:28;;;;;;;4.55;2.50;;;;;;;;;;6296350;28;20056;-80
2023/10/04 04:42:35;;;;;;;5.03;2.58;;;;;;;;;;6289785;28;20049;-80
2023/10/04 04:45:40;;;;;;;5.00;3.33;;;;;;;;;;6296077;28;20048;-80
2023/10/04 04:48:43;;;;;;;5.68;3.35;;;;;;;;;;6288532;28;20052;-80
2023/10/04 04:51:49;;;;;;;6.90;2.85;;;;;;;;;;6282484;28;20044;-78
2023/10/04 04:54:55;;;;;;;5.10;2.40;;;;;;;;;;6289975;28;20036;-78
2023/10/04 04:57:57;;;;;;;3.72;2.35;;;;;;;;;;6296068;28;20438;-80
2023/10/04 05:01:03;;;;;;;4.40;2.65;;;;;;;;;;6291252;28;20040;-81
2023/10/04 05:04:07;;;;;;;6.93;2.60;;;;;;;;;;6299047;28;20086;-81
2023/10/04 05:07:12;;;;;;;5.93;2.38;;;;;;;;;;6282411;28;20040;-79
2023/10/04 05:10:17;;;;;;;6.57;2.53;;;;;;;;;;6293055;28;20056;-79
2023/10/04 05:13:19;;;;;;;7.35;2.05;;;;;;;;;;6287119;28;20052;-81
2023/10/04 05:16:21;;;;;;;3.42;2.30;;;;;;;;;;6298008;28;20052;-80
2023/10/04 05:19:23;;;;;;;4.38;2.10;;;;;;;;;;6300660;28;20051;-79
2023/10/04 05:22:24;;;;;;;6.82;3.00;;;;;;;;;;6293242;28;20059;-80
2023/10/04 05:25:30;;;;;;;4.40;2.30;;;;;;;;;;6304238;28;20311;-79
2023/10/04 05:28:33;;;;;;;4.53;2.47;;;;;;;;;;6290790;28;20565;-81
2023/10/04 05:31:34;;;;;;;3.70;2.55;;;;;;;;;;6278224;28;20477;-79
2023/10/04 05:34:36;;;;;;;5.55;3.22;;;;;;;;;;6282836;28;20059;-81
2023/10/04 05:37:42;;;;;;;5.67;2.70;;;;;;;;;;6301750;28;20048;-78
2023/10/04 05:40:46;;;;;;;6.20;2.70;;;;;;;;;;6289809;28;20051;-79
2023/10/04 05:43:49;;;;;;;3.45;2.20;;;;;;;;;;6303726;28;20071;-78
2023/10/04 05:46:50;;;;;;;4.78;2.42;;;;;;;;;;6296923;28;20066;-79
2023/10/04 05:49:52;;;;;;;5.43;2.63;;;;;;;;;;6298107;28;20052;-80
2023/10/04 05:52:54;;;;;;;3.92;2.55;;;;;;;;;;6288505;28;20051;-80
2023/10/04 05:55:55;;;;;;;5.13;2.80;;;;;;;;;;6298321;28;20067;-79
2023/10/04 05:59:00;;;;;;;7.97;2.83;;;;;;;;;;6311249;28;20040;-78
2023/10/04 06:02:02;;;;;;;7.32;3.28;;;;;;;;;;6298213;28;20040;-79
2023/10/04 06:05:08;;;;;;;6.43;2.45;;;;;;;;;;6288128;28;20036;-81
2023/10/04 06:08:21;;;;;;;8.15;3.70;;;;;;;;;;6291482;28;20054;-77
2023/10/04 06:11:24;;;;;;;5.60;3.00;;;;;;;;;;6277640;28;20041;-78
2023/10/04 06:14:29;;;;;;;8.63;3.67;;;;;;;;;;6310279;28;20040;-77
2023/10/04 06:17:31;;;;;;;5.03;2.90;;;;;;;;;;6299854;28;20048;-79
2023/10/04 06:20:36;;;;;;;7.57;3.43;;;;;;;;;;6289930;28;20059;-81
2023/10/04 06:23:38;;;;;;;4.65;2.45;;;;;;;;;;6299133;28;20441;-82
2023/10/04 06:26:41;;;;;;;6.20;2.50;;;;;;;;;;6285736;28;20052;-80
2023/10/04 06:29:43;;;;;;;3.97;2.33;;;;;;;;;;6321019;28;20047;-78
2023/10/04 06:32:45;;;;;;;4.15;2.20;;;;;;;;;;6276556;28;20047;-79
2023/10/04 06:35:47;;;;;;;4.00;1.85;;;;;;;;;;6309090;28;20048;-79
2023/10/04 06:38:51;;;;;;;3.47;1.92;;;;;;;;;;6283012;28;20076;-80
2023/10/04 06:41:53;;;;;;;3.75;2.22;;;;;;;;;;6301939;28;20421;-81
2023/10/04 06:44:55;;;;;;;7.95;2.63;;;;;;;;;;6297141;28;20055;-80
2023/10/04 06:47:58;;;;;;;6.65;3.05;;;;;;;;;;6308307;28;20063;-80
2023/10/04 06:51:00;;;;;;;;;;;;;;;;;;6312796;28;20047;-82
2023/10/04 06:54:05;;;;;;;5.30;2.10;;;;;;;;;;6303085;28;19920;-82
2023/10/04 06:57:08;;;;;;;4.93;2.35;;;;;;;;;;6292011;28;20051;-81
2023/10/04 07:00:17;;;;;;;;;;;;;;;;;;6292595;28;20041;-79
2023/10/04 07:03:22;;;;;;;8.80;2.38;;;;;;;;;;6286240;28;20214;-82
2023/10/04 07:06:24;;;;;;;3.92;2.50;;;;;;;;;;6301946;28;20047;-81
2023/10/04 07:09:27;;;;;;;7.63;3.15;;;;;;;;;;6281667;28;20129;-79
2023/10/04 07:12:31;;;;;;;6.03;2.83;;;;;;;;;;6312148;28;20055;-81
2023/10/04 07:15:41;;;;;;;6.20;2.83;;;;;;;;;;6312784;28;20111;-86
2023/10/04 07:18:44;;;;;;;4.35;2.15;;;;;;;;;;6290944;28;20048;-81
2023/10/04 07:21:46;;;;;;;4.22;2.58;;;;;;;;;;6277506;28;20064;-81
2023/10/04 07:24:48;;;;;;;5.47;2.58;;;;;;;;;;6279368;28;20173;-80
2023/10/04 07:27:49;;;;;;;6.10;2.38;;;;;;;;;;6287687;28;20047;-82
2023/10/04 07:30:51;;;;;;;5.07;2.30;;;;;;;;;;6292778;28;20052;-76
2023/10/04 07:33:53;;;;;;;4.28;2.63;;;;;;;;;;6285934;28;20036;-81
2023/10/04 07:36:55;;;;;;;6.15;2.42;;;;;;;;;;6312005;28;20065;-80
2023/10/04 07:39:57;;;;;;;4.63;2.25;;;;;;;;;;6269297;28;20406;-80
2023/10/04 07:43:01;;;;;;;6.97;2.15;;;;;;;;;;6290917;28;20187;-82
2023/10/04 07:46:05;;;;;;;5.35;2.30;;;;;;;;;;6267556;28;20395;-81
2023/10/04 07:49:08;;;;;;;5.40;2.10;;;;;;;;;;6292026;28;20078;-80
2023/10/04 07:52:09;;;;;;;3.30;2.03;;;;;;;;;;6287642;28;20060;-79
2023/10/04 07:55:14;;;;;;;7.63;2.00;;;;;;;;;;6287158;28;20049;-81
2023/10/04 07:58:16;;;;;;;7.50;2.00;;;;;;;;;;6294826;28;20051;-82
2023/10/04 08:01:18;;;;;;;3.85;1.88;;;;;;;;;;6311179;28;20048;-81
2023/10/04 08:04:19;;;;;;;8.27;2.20;;;;;;;;;;6323329;28;20098;-79
2023/10/04 08:07:21;;;;;;;3.45;2.00;;;;;;;;;;6309104;28;20187;-79
2023/10/04 08:10:25;;;;;;;8.35;2.20;;;;;;;;;;6297932;28;20048;-78
2023/10/04 08:13:27;;;;;;;5.30;1.83;;;;;;;;;;6312091;28;20044;-79
2023/10/04 08:16:30;;;;;;;5.40;1.73;;;;;;;;;;6300811;28;20044;-79
2023/10/04 08:19:33;;;;;;;9.50;2.28;;;;;;;;;;6311136;28;20063;-78
2023/10/04 08:22:35;;;;;;;4.00;2.30;;;;;;;;;;6301916;28;20615;-80
2023/10/04 08:25:37;;;;;;;7.60;2.20;;;;;;;;;;6304328;28;20048;-79
2023/10/04 08:28:41;;;;;;;8.02;2.25;;;;;;;;;;6313911;28;20059;-79
2023/10/04 08:31:43;;;;;;;5.38;1.92;;;;;;;;;;6279082;28;20064;-81
2023/10/04 08:34:45;;;;;;;5.43;1.95;;;;;;;;;;6310671;28;20123;-82
2023/10/04 08:38:00;;;;;;;7.60;2.10;;;;;;;;;;6294007;28;20052;-79
2023/10/04 08:41:02;;;;;;;7.97;2.33;;;;;;;;;;6282605;28;20386;-82
2023/10/04 08:44:06;;;;;;;4.90;2.25;;;;;;;;;;6308791;28;20051;-80
2023/10/04 08:47:08;;;;;;;6.40;2.70;;;;;;;;;;6311302;28;20493;-81
2023/10/04 08:50:14;;;;;;;5.68;2.05;;;;;;;;;;6275971;28;20051;-81
2023/10/04 08:53:52;;;;;;;7.10;2.05;;;;;;;;;;6293101;28;20638;-82
2023/10/04 08:57:03;;;;;;;7.82;2.67;;;;;;;;;;6285503;28;20048;-79
2023/10/04 09:00:17;;;;;;;9.82;2.30;;;;;;;;;;6305722;28;20089;-78
2023/10/04 09:03:33;;;;;;;5.80;2.30;;;;;;;;;;6282964;28;20079;-78
2023/10/04 09:06:36;;;;;;;6.80;2.33;;;;;;;;;;6283886;28;20104;-80
2023/10/04 09:09:38;;;;;;;7.82;2.60;;;;;;;;;;6283457;28;20107;-79
2023/10/04 09:12:44;;;;;;;8.40;2.30;;;;;;;;;;6278417;28;20070;-79
2023/10/04 09:16:17;;;;;;;7.65;2.10;;;;;;;;;;6299337;28;20039;-79
2023/10/04 09:19:18;;;;;;;6.25;2.00;;;;;;;;;;6304604;28;20467;-78
2023/10/04 09:22:29;;;;;;;7.50;2.42;;;;;;;;;;6274746;28;20044;-78
2023/10/04 09:25:39;;;;;;;11.48;2.42;;;;;;;;;;6303261;28;20059;-80
2023/10/04 09:28:40;;;;;;;6.07;1.85;;;;;;;;;;6307460;28;20048;-76
2023/10/04 09:31:55;;;;;;;6.35;2.20;;;;;;;;;;6292988;28;20044;-79
2023/10/04 09:34:57;;;;;;;6.47;2.25;;;;;;;;;;6303164;28;20051;-78
2023/10/04 09:38:18;;;;;;;6.90;2.15;;;;;;;;;;6301700;28;20048;-80
2023/10/04 09:41:20;;;;;;;9.65;2.88;;;;;;;;;;6282209;28;20045;-82
2023/10/04 09:44:30;;;;;;;6.88;2.20;;;;;;;;;;6307073;28;20699;-82
2023/10/04 09:47:38;;;;;;;6.07;2.10;;;;;;;;;;6280637;28;20521;-81
2023/10/04 09:50:40;;;;;;;6.25;2.08;;;;;;;;;;6287028;28;20498;-81
2023/10/04 09:53:42;;;;;;;10.02;2.35;;;;;;;;;;6284787;28;20056;-78
2023/10/04 09:56:49;;;;;;;9.57;2.10;;;;;;;;;;6283119;28;20039;-78
2023/10/04 09:59:54;;;;;;;5.53;2.05;;;;;;;;;;6293090;28;20083;-80
2023/10/04 10:02:58;;;;;;;6.97;2.22;;;;;;;;;;6296357;28;20651;-81
2023/10/04 10:06:00;;;;;;;7.53;1.90;;;;;;;;;;6267758;28;20056;-79
2023/10/04 10:09:08;;;;;;;5.40;1.90;;;;;;;;;;6298121;28;20055;-81
2023/10/04 10:12:10;;;;;;;6.10;1.92;;;;;;;;;;6295763;28;20100;-81
2023/10/04 10:15:13;;;;;;;9.23;2.13;;;;;;;;;;6292682;28;20045;-82
2023/10/04 10:18:17;;;;;;;;;;;;;;;;;;6281752;28;20526;-80
2023/10/04 10:21:18;;;;;;;;;;;;;;;;;;6289240;28;19921;-79
2023/10/04 10:24:21;;;;;;;6.70;1.75;;;;;;;;;;6282631;28;19928;-80
2023/10/04 10:27:25;;;;;;;5.38;2.10;;;;;;;;;;6284839;28;20036;-80
2023/10/04 10:30:30;;;;;;;6.90;2.10;;;;;;;;;;6287897;28;20043;-79
2023/10/04 10:33:32;;;;;;;4.47;1.73;;;;;;;;;;6301822;28;20060;-79
2023/10/04 10:36:35;;;;;;;5.43;1.88;;;;;;;;;;6295303;28;20045;-78
2023/10/04 10:39:51;;;;;;;5.70;1.92;;;;;;;;;;6289763;28;20048;-75
2023/10/04 10:43:07;;;;;;;5.38;2.10;;;;;;;;;;6292763;28;20526;-77
2023/10/04 10:46:28;;;;;;;4.65;1.90;;;;;;;;;;6292606;28;20420;-80
2023/10/04 10:49:52;;;;;;;5.40;2.20;;;;;;;;;;6278310;28;20052;-79
2023/10/04 10:53:02;;;;;;;;;;;;;;;;;;6292885;28;20045;-77
2023/10/04 10:56:05;;;;;;;6.32;1.92;;;;;;;;;;6300166;28;19920;-78
2023/10/04 10:59:06;;;;;;;6.82;2.00;;;;;;;;;;6303364;28;20044;-80
2023/10/04 11:02:09;;;;;;;6.85;2.05;;;;;;;;;;6284597;28;20037;-81
2023/10/04 11:05:16;;;;;;;7.18;2.20;;;;;;;;;;6294921;28;20039;-78
2023/10/04 11:08:18;;;;;;;7.00;2.40;;;;;;;;;;6276882;28;20080;-80
2023/10/04 11:11:20;;;;;;;6.25;2.00;;;;;;;;;;6290247;28;20127;-80
2023/10/04 11:14:22;;;;;;;6.20;2.40;;;;;;;;;;6303727;28;20501;-80
2023/10/04 11:17:24;;;;;;;4.17;1.90;;;;;;;;;;6290232;28;20048;-82
2023/10/04 11:20:28;;;;;;;7.50;2.58;;;;;;;;;;6286695;28;20459;-84
2023/10/04 11:23:30;;;;;;;4.95;2.20;;;;;;;;;;6286692;28;20051;-82
2023/10/04 11:26:39;;;;;;;5.63;1.83;;;;;;;;;;6311027;28;20388;-83
2023/10/04 11:29:43;;;;;;;4.90;2.35;;;;;;;;;;6275168;28;20062;-81
2023/10/04 11:32:46;;;;;;;6.40;2.40;;;;;;;;;;6277030;28;20143;-82
2023/10/04 11:35:48;;;;;;;5.20;2.30;;;;;;;;;;6304242;28;20732;-79
2023/10/04 11:38:50;;;;;;;6.03;2.22;;;;;;;;;;6290102;28;20040;-81
2023/10/04 11:41:52;;;;;;;5.70;2.22;;;;;;;;;;6300019;28;20421;-78
2023/10/04 11:44:54;;;;;;;8.45;2.25;;;;;;;;;;6291444;28;20165;-81
2023/10/04 11:48:05;;;;;;;7.28;2.30;;;;;;;;;;6301831;28;20044;-82
2023/10/04 11:51:08;;;;;;;6.30;2.40;;;;;;;;;;6297773;28;20070;-84
2023/10/04 11:54:11;;;;;;;4.10;2.00;;;;;;;;;;6302047;28;20477;-84
2023/10/04 11:57:23;;;;;;;6.97;2.03;;;;;;;;;;6270364;28;20040;-84
2023/10/04 12:00:26;;;;;;;4.82;1.80;;;;;;;;;;6316460;28;20043;-80
2023/10/04 12:03:28;;;;;;;4.35;2.10;;;;;;;;;;6288695;28;20453;-82
2023/10/04 12:06:30;;;;;;;6.28;2.10;;;;;;;;;;6308558;28;20055;-79
2023/10/04 12:09:34;;;;;;;6.63;2.45;;;;;;;;;;6296787;28;20052;-79
2023/10/04 12:12:37;;;;;;;6.90;2.05;;;;;;;;;;6290436;28;20048;-79
2023/10/04 12:15:39;;;;;;;7.75;2.35;;;;;;;;;;6275041;28;20106;-82
2023/10/04 12:18:42;;;;;;;8.45;2.30;;;;;;;;;;6288316;28;20099;-82
2023/10/04 12:21:44;;;;;;;5.85;2.10;;;;;;;;;;6284856;28;20154;-80
2023/10/04 12:24:47;;;;;;;5.70;2.13;;;;;;;;;;6294456;28;20037;-80
2023/10/04 12:27:50;;;;;;;4.13;2.20;;;;;;;;;;6281706;28;20081;-80
2023/10/04 12:30:52;;;;;;;7.40;2.38;;;;;;;;;;6284917;28;20169;-82
2023/10/04 12:33:55;;;;;;;6.60;2.22;;;;;;;;;;6300944;28;20047;-81
2023/10/04 12:36:57;;;;;;;5.90;2.40;;;;;;;;;;6279833;28;20055;-82
2023/10/04 12:40:00;;;;;;;5.43;2.00;;;;;;;;;;6295480;28;20055;-83
2023/10/04 12:43:02;;;;;;;;;;;;;;;;;;6294014;28;20421;-82
2023/10/04 12:46:04;;;;;;;6.85;2.05;;;;;;;;;;6285568;28;19920;-81
2023/10/04 12:49:10;;;;;;;5.78;2.28;;;;;;;;;;6280770;28;20048;-80
2023/10/04 12:52:11;;;;;;;5.80;2.15;;;;;;;;;;6296393;28;20520;-83
2023/10/04 12:55:14;;;;;;;7.10;2.10;;;;;;;;;;6292117;28;20472;-83
2023/10/04 12:58:18;;;;;;;4.63;2.28;;;;;;;;;;6305563;28;20087;-82
2023/10/04 13:01:21;;;;;;;5.78;1.98;;;;;;;;;;6269665;28;20055;-79
2023/10/04 13:04:23;;;;;;;6.45;2.70;;;;;;;;;;6276547;28;20112;-82
2023/10/04 13:07:26;;;;;;;4.90;2.10;;;;;;;;;;6258612;28;20064;-82
2023/10/04 13:10:27;;;;;;;7.35;2.40;;;;;;;;;;6281006;28;20036;-83
2023/10/04 13:13:29;;;;;;;6.47;2.17;;;;;;;;;;6302179;28;20050;-82
2023/10/04 13:16:33;;;;;;;7.13;2.28;;;;;;;;;;6261281;28;20438;-82
2023/10/04 13:19:34;;;;;;;6.10;2.17;;;;;;;;;;6286572;28;20048;-80
2023/10/04 13:22:36;;;;;;;8.30;2.45;;;;;;;;;;6278699;28;20040;-81
2023/10/04 13:25:39;;;;;;;7.00;2.53;;;;;;;;;;6284298;28;20055;-78
2023/10/04 13:28:40;;;;;;;8.60;2.50;;;;;;;;;;6286813;28;20051;-79
2023/10/04 13:31:42;;;;;;;7.07;2.35;;;;;;;;;;6304375;28;20052;-80
2023/10/04 13:34:44;;;;;;;4.97;2.33;;;;;;;;;;6297581;28;20043;-79
2023/10/04 13:37:47;;;;;;;7.45;2.22;;;;;;;;;;6284594;28;20036;-80
2023/10/04 13:40:52;;;;;;;;;;;;;;;;;;6279812;28;20112;-79
2023/10/04 13:43:54;;;;;;;6.82;2.40;;;;;;;;;;6289350;28;19987;-81
2023/10/04 13:46:56;;;;;;;6.03;2.50;;;;;;;;;;6279622;28;20041;-80
2023/10/04 13:49:58;;;;;;;6.18;2.35;;;;;;;;;;6278994;28;20083;-79
2023/10/04 13:53:00;;;;;;;6.20;2.60;;;;;;;;;;6296829;28;20047;-81
2023/10/04 13:56:05;;;;;;;5.50;2.40;;;;;;;;;;6281927;28;20415;-78
2023/10/04 13:59:09;;;;;;;5.90;2.72;;;;;;;;;;6301065;28;20036;-84
2023/10/04 14:02:11;;;;;;;8.52;2.67;;;;;;;;;;6280777;28;20037;-84
2023/10/04 14:05:18;;;;;;;8.75;2.72;;;;;;;;;;6289369;28;20151;-84
2023/10/04 14:08:21;;;;;;;7.15;3.03;;;;;;;;;;6289782;28;20060;-83
2023/10/04 14:11:22;;;;;;;8.27;2.80;;;;;;;;;;6274268;28;20172;-83
2023/10/04 14:14:27;;;;;;;6.50;2.75;;;;;;;;;;6290075;28;20059;-83
2023/10/04 14:17:29;;;;;;;7.03;2.40;;;;;;;;;;6296974;28;20051;-83
2023/10/04 14:20:31;;;;;;;9.85;3.20;;;;;;;;;;6274571;28;20417;-83
2023/10/04 14:23:33;;;;;;;6.82;2.47;;;;;;;;;;6270544;28;20052;-83
2023/10/04 14:26:37;;;;;;;6.38;2.60;;;;;;;;;;6301608;28;20043;-85
2023/10/04 14:29:41;;;;;;;7.28;2.78;;;;;;;;;;6288569;28;20649;-82
2023/10/04 14:32:44;;;;;;;7.05;3.05;;;;;;;;;;6282337;28;20489;-82
2023/10/04 14:35:47;;;;;;;6.47;2.75;;;;;;;;;;6310925;28;20040;-84
2023/10/04 14:38:52;;;;;;;6.95;2.58;;;;;;;;;;6283636;28;20044;-83
2023/10/04 14:41:54;;;;;;;7.13;2.92;;;;;;;;;;6289437;28;20036;-82
2023/10/04 14:44:58;;;;;;;8.05;2.65;;;;;;;;;;6286806;28;20075;-83
2023/10/04 14:48:00;;;;;;;7.28;2.95;;;;;;;;;;6281779;28;20478;-83
2023/10/04 14:51:02;;;;;;;5.47;2.45;;;;;;;;;;6273787;28;20056;-83
2023/10/04 14:54:06;;;;;;;8.85;3.10;;;;;;;;;;6273675;28;20051;-83
2023/10/04 14:57:08;;;;;;;7.47;2.90;;;;;;;;;;6305264;28;20194;-83
2023/10/04 15:00:11;;;;;;;7.77;3.00;;;;;;;;;;6285860;28;20072;-82
2023/10/04 15:03:13;;;;;;;7.55;2.97;;;;;;;;;;6276110;28;20040;-83
2023/10/04 15:06:15;;;;;;;7.72;2.75;;;;;;;;;;6286143;28;20052;-82
2023/10/04 15:09:18;;;;;;;8.15;3.40;;;;;;;;;;6286211;28;20066;-83
2023/10/04 15:12:19;;;;;;;8.38;3.00;;;;;;;;;;6286478;28;20097;-83
2023/10/04 15:15:21;;;;;;;10.07;3.30;;;;;;;;;;6283800;28;20047;-84
2023/10/04 15:18:23;;;;;;;6.38;2.47;;;;;;;;;;6285070;28;20048;-83
2023/10/04 15:21:26;;;;;;;8.77;2.75;;;;;;;;;;6299901;28;20040;-84
2023/10/04 15:24:28;;;;;;;8.55;2.88;;;;;;;;;;6276138;28;20147;-84
2023/10/04 15:27:30;;;;;;;8.18;2.92;;;;;;;;;;6300108;28;20110;-83
2023/10/04 15:30:32;;;;;;;5.93;2.55;;;;;;;;;;6283436;28;20178;-83
2023/10/04 15:33:33;;;;;;;9.00;2.97;;;;;;;;;;6298175;28;20052;-83
2023/10/04 15:36:36;;;;;;;6.38;3.10;;;;;;;;;;6299921;28;20124;-83
2023/10/04 15:39:37;;;;;;;6.20;2.42;;;;;;;;;;6300132;28;20051;-83
2023/10/04 15:42:41;;;;;;;7.97;2.42;;;;;;;;;;6294654;28;20530;-83
2023/10/04 15:45:45;;;;;;;8.30;2.70;;;;;;;;;;6294716;28;20110;-83
2023/10/04 15:48:48;;;;;;;8.30;2.78;;;;;;;;;;6293810;28;20066;-82
2023/10/04 15:51:50;;;;;;;7.15;2.70;;;;;;;;;;6301372;28;20111;-83
2023/10/04 15:54:51;;;;;;;7.10;2.60;;;;;;;;;;6296139;28;20049;-83
2023/10/04 15:57:54;;;;;;;8.57;2.90;;;;;;;;;;6285724;28;20107;-83
2023/10/04 16:00:56;;;;;;;7.82;3.05;;;;;;;;;;6302137;28;20119;-83
2023/10/04 16:03:58;;;;;;;6.68;2.80;;;;;;;;;;6300665;28;20519;-82
2023/10/04 16:07:00;;;;;;;8.70;3.13;;;;;;;;;;6278610;28;20122;-85
2023/10/04 16:10:03;;;;;;;10.15;2.70;;;;;;;;;;6278998;28;20217;-83
2023/10/04 16:13:05;;;;;;;6.47;2.78;;;;;;;;;;6262824;28;20047;-84
2023/10/04 16:16:09;;;;;;;8.70;2.85;;;;;;;;;;6276281;28;20548;-85
2023/10/04 16:19:10;;;;;;;7.65;3.05;;;;;;;;;;6270124;28;21214;-86
2023/10/04 16:22:12;;;;;;;7.70;2.97;;;;;;;;;;6289642;28;20051;-86
2023/10/04 16:25:14;;;;;;;7.75;3.00;;;;;;;;;;6289062;28;20733;-85
2023/10/04 16:28:16;;;;;;;7.18;2.70;;;;;;;;;;6307241;28;20308;-85
2023/10/04 16:31:22;;;;;;;9.00;3.57;;;;;;;;;;6261878;28;20040;-86
2023/10/04 16:34:26;;;;;;;7.40;2.80;;;;;;;;;;6283486;28;20474;-85
2023/10/04 16:37:30;;;;;;;7.40;3.08;;;;;;;;;;6299678;28;20036;-85
2023/10/04 16:40:32;;;;;;;9.50;3.10;;;;;;;;;;6277624;28;20040;-85
2023/10/04 16:43:34;;;;;;;8.80;3.10;;;;;;;;;;6278220;28;20067;-85
2023/10/04 16:46:36;;;;;;;8.45;3.17;;;;;;;;;;6308392;28;20078;-86
2023/10/04 16:49:38;;;;;;;14.35;3.85;;;;;;;;;;6297052;28;20060;-87
2023/10/04 16:52:40;;;;;;;12.47;3.60;;;;;;;;;;6281885;28;20055;-84
2023/10/04 16:55:42;;;;;;;11.00;3.83;;;;;;;;;;6291264;28;20450;-82
2023/10/04 16:58:46;;;;;;;9.25;3.35;;;;;;;;;;6269921;28;20048;-81
2023/10/04 17:01:48;;;;;;;11.02;3.22;;;;;;;;;;6303209;28;20932;-85
2023/10/04 17:04:50;;;;;;;9.30;3.17;;;;;;;;;;6289391;28;20059;-86
2023/10/04 17:07:52;;;;;;;11.27;4.00;;;;;;;;;;6301827;28;20047;-84
2023/10/04 17:10:54;;;;;;;12.95;4.30;;;;;;;;;;6271397;28;20044;-83
2023/10/04 17:13:55;;;;;;;12.00;4.00;;;;;;;;;;6266474;28;20071;-85
2023/10/04 17:16:57;;;;;;;10.55;3.70;;;;;;;;;;6276903;28;20047;-85
2023/10/04 17:19:58;;;;;;;9.57;3.40;;;;;;;;;;6275130;28;20090;-85
2023/10/04 17:23:00;;;;;;;10.75;4.28;;;;;;;;;;6263766;28;20330;-84
2023/10/04 17:26:04;;;;;;;9.32;3.47;;;;;;;;;;6294273;28;20058;-80
2023/10/04 17:29:06;;;;;;;12.85;4.18;;;;;;;;;;6271603;28;20059;-83
2023/10/04 17:32:08;;;;;;;9.00;3.60;;;;;;;;;;6260093;28;20145;-82
2023/10/04 17:35:09;;;;;;;7.80;3.15;;;;;;;;;;6273621;28;20493;-82
2023/10/04 17:38:12;;;;;;;6.53;2.92;;;;;;;;;;6293331;28;20079;-82
2023/10/04 17:41:15;;;;;;;11.13;3.70;;;;;;;;;;6295110;28;20521;-83
2023/10/04 17:44:18;;;;;;;6.55;3.60;;;;;;;;;;6300705;28;20052;-81
2023/10/04 17:47:20;;;;;;;11.73;6.38;;;;;;;;;;6254125;28;20047;-83
2023/10/04 17:50:22;;;;;;;11.75;5.60;;;;;;;;;;6250877;28;20075;-82
2023/10/04 17:53:24;;;;;;;14.38;5.35;;;;;;;;;;6294472;28;20047;-81
2023/10/04 17:56:26;;;;;;;15.43;6.50;;;;;;;;;;6294261;28;20059;-82
2023/10/04 17:59:27;;;;;;;11.73;4.63;;;;;;;;;;6269798;28;20051;-80
2023/10/04 18:02:29;;;;;;;12.85;4.45;;;;;;;;;;6280934;28;20044;-82
2023/10/04 18:05:32;;;;;;;11.30;3.75;;;;;;;;;;6300936;28;20185;-84
2023/10/04 18:08:34;;;;;;;;;;;;;;;;;;6280915;28;20112;-84
2023/10/04 18:11:35;;;;;;;9.63;3.72;;;;;;;;;;6274549;28;19923;-81
2023/10/04 18:14:40;;;;;;;10.00;5.40;;;;;;;;;;6297674;28;20048;-81
2023/10/04 18:17:42;;;;;;;18.02;9.18;;;;;;;;;;6279956;28;20051;-83
2023/10/04 18:20:44;;;;;;;13.80;5.45;;;;;;;;;;6290775;28;20040;-83
2023/10/04 18:23:46;;;;;;;9.73;3.67;;;;;;;;;;6269425;28;20036;-83